Cottonwood Creek, Nevada
Current Conditions -  °F | °C
As of 3:15 PM on Monday 22 Dec 2014 (Local Time) from KRTS Reporting Station
Few Clouds Few Clouds  
Wind Chill: 52°   Ceiling: Unl
Heat Index: 52°   Visibility: 10mi
Dew Point: 37°   Wind: 13mph
Humidity: 58%   Direction: 330°NNW
Pressure: 30.31"   Gusts: NA
Location:  39.8171°N, 119.63°W
Report Text: KRTS 222315Z AUTO 33011KT 10SM FEW037 11/03 A3031 RMK AO2
Loading
Personal Weather Stations






























Interactive Weather Map New forecast layout! Learn more

10-Day Weather Forecast

Advertisements
Track Severe Weather on mobile